sensor_id;sensor_type;location;lat;lon;timestamp;temperature;humidity
37984;DHT22;64625;50.882;4.376;2023-04-26T00:00:25;6.40;99.90
37984;DHT22;64625;50.882;4.376;2023-04-26T00:02:51;6.30;99.90
37984;DHT22;64625;50.882;4.376;2023-04-26T00:05:17;6.30;99.90
37984;DHT22;64625;50.882;4.376;2023-04-26T00:07:44;6.30;99.90
37984;DHT22;64625;50.882;4.376;2023-04-26T00:10:11;6.20;99.90
37984;DHT22;64625;50.882;4.376;2023-04-26T00:12:37;6.20;99.90
37984;DHT22;64625;50.882;4.376;2023-04-26T00:15:03;6.10;99.90
37984;DHT22;64625;50.882;4.376;2023-04-26T00:17:29;6.10;99.90
37984;DHT22;64625;50.882;4.376;2023-04-26T00:19:56;6.10;99.90
37984;DHT22;64625;50.882;4.376;2023-04-26T00:22:23;6.00;99.90
37984;DHT22;64625;50.882;4.376;2023-04-26T00:24:50;6.00;99.90
37984;DHT22;64625;50.882;4.376;2023-04-26T00:27:16;5.90;99.90
37984;DHT22;64625;50.882;4.376;2023-04-26T00:29:42;5.90;99.90
37984;DHT22;64625;50.882;4.376;2023-04-26T00:32:08;5.90;99.90
37984;DHT22;64625;50.882;4.376;2023-04-26T00:34:35;5.80;99.90
37984;DHT22;64625;50.882;4.376;2023-04-26T00:37:01;5.80;99.90
37984;DHT22;64625;50.882;4.376;2023-04-26T00:39:28;5.80;99.90
37984;DHT22;64625;50.882;4.376;2023-04-26T00:41:54;5.70;99.90
37984;DHT22;64625;50.882;4.376;2023-04-26T00:44:20;5.70;99.90
37984;DHT22;64625;50.882;4.376;2023-04-26T00:46:51;5.70;99.90
37984;DHT22;64625;50.882;4.376;2023-04-26T00:49:20;5.60;99.90
37984;DHT22;64625;50.882;4.376;2023-04-26T00:51:47;5.60;99.90
37984;DHT22;64625;50.882;4.376;2023-04-26T00:54:13;5.60;99.90
37984;DHT22;64625;50.882;4.376;2023-04-26T00:56:41;5.60;99.90
37984;DHT22;64625;50.882;4.376;2023-04-26T00:59:07;5.50;99.90
37984;DHT22;64625;50.882;4.376;2023-04-26T01:01:33;5.50;99.90
37984;DHT22;64625;50.882;4.376;2023-04-26T01:04:00;5.50;99.90
37984;DHT22;64625;50.882;4.376;2023-04-26T01:06:33;5.50;99.90
37984;DHT22;64625;50.882;4.376;2023-04-26T01:09:02;5.40;99.90
37984;DHT22;64625;50.882;4.376;2023-04-26T01:11:38;5.40;99.90
37984;DHT22;64625;50.882;4.376;2023-04-26T01:14:05;5.40;99.90
37984;DHT22;64625;50.882;4.376;2023-04-26T01:16:34;5.40;99.90
37984;DHT22;64625;50.882;4.376;2023-04-26T01:19:10;5.30;99.90
37984;DHT22;64625;50.882;4.376;2023-04-26T01:21:38;5.30;99.90
37984;DHT22;64625;50.882;4.376;2023-04-26T01:24:04;5.30;99.90
37984;DHT22;64625;50.882;4.376;2023-04-26T01:26:30;5.20;99.90
37984;DHT22;64625;50.882;4.376;2023-04-26T01:28:57;5.20;99.90
37984;DHT22;64625;50.882;4.376;2023-04-26T01:31:23;5.20;99.90
37984;DHT22;64625;50.882;4.376;2023-04-26T01:33:49;5.20;99.90
37984;DHT22;64625;50.882;4.376;2023-04-26T01:36:14;5.20;99.90
37984;DHT22;64625;50.882;4.376;2023-04-26T01:38:41;5.10;99.90
37984;DHT22;64625;50.882;4.376;2023-04-26T01:41:07;5.10;99.90
37984;DHT22;64625;50.882;4.376;2023-04-26T01:43:34;5.10;99.90
37984;DHT22;64625;50.882;4.376;2023-04-26T01:46:00;5.00;99.90
37984;DHT22;64625;50.882;4.376;2023-04-26T01:48:26;5.00;99.90
37984;DHT22;64625;50.882;4.376;2023-04-26T01:50:53;5.00;99.90
37984;DHT22;64625;50.882;4.376;2023-04-26T01:53:24;5.00;99.90
37984;DHT22;64625;50.882;4.376;2023-04-26T01:55:51;5.00;99.90
37984;DHT22;64625;50.882;4.376;2023-04-26T01:58:16;5.00;99.90
37984;DHT22;64625;50.882;4.376;2023-04-26T02:00:42;4.90;99.90
37984;DHT22;64625;50.882;4.376;2023-04-26T02:03:08;4.90;99.90
37984;DHT22;64625;50.882;4.376;2023-04-26T02:05:33;4.90;99.90
37984;DHT22;64625;50.882;4.376;2023-04-26T02:07:59;4.80;99.90
37984;DHT22;64625;50.882;4.376;2023-04-26T02:10:27;4.90;99.90
37984;DHT22;64625;50.882;4.376;2023-04-26T02:12:52;4.80;99.90
37984;DHT22;64625;50.882;4.376;2023-04-26T02:15:18;4.80;99.90
37984;DHT22;64625;50.882;4.376;2023-04-26T02:17:44;4.80;99.90
37984;DHT22;64625;50.882;4.376;2023-04-26T02:20:10;4.80;99.90
37984;DHT22;64625;50.882;4.376;2023-04-26T02:22:38;4.80;99.90
37984;DHT22;64625;50.882;4.376;2023-04-26T02:25:04;4.80;99.90
37984;DHT22;64625;50.882;4.376;2023-04-26T02:27:30;4.70;99.90
37984;DHT22;64625;50.882;4.376;2023-04-26T02:29:57;4.70;99.90
37984;DHT22;64625;50.882;4.376;2023-04-26T02:32:23;4.70;99.90
37984;DHT22;64625;50.882;4.376;2023-04-26T02:34:48;4.70;99.90
37984;DHT22;64625;50.882;4.376;2023-04-26T02:37:14;4.70;99.90
37984;DHT22;64625;50.882;4.376;2023-04-26T02:39:40;4.70;99.90
37984;DHT22;64625;50.882;4.376;2023-04-26T02:42:09;4.70;99.90
37984;DHT22;64625;50.882;4.376;2023-04-26T02:44:38;4.70;99.90
37984;DHT22;64625;50.882;4.376;2023-04-26T02:47:04;4.70;99.90
37984;DHT22;64625;50.882;4.376;2023-04-26T02:49:30;4.70;99.90
37984;DHT22;64625;50.882;4.376;2023-04-26T02:51:56;4.70;99.90
37984;DHT22;64625;50.882;4.376;2023-04-26T02:54:21;4.70;99.90
37984;DHT22;64625;50.882;4.376;2023-04-26T02:56:47;4.70;99.90
37984;DHT22;64625;50.882;4.376;2023-04-26T02:59:13;4.60;99.90
37984;DHT22;64625;50.882;4.376;2023-04-26T03:01:39;4.60;99.90
37984;DHT22;64625;50.882;4.376;2023-04-26T03:04:05;4.60;99.90
37984;DHT22;64625;50.882;4.376;2023-04-26T03:06:30;4.60;99.90
37984;DHT22;64625;50.882;4.376;2023-04-26T03:08:56;4.60;99.90
37984;DHT22;64625;50.882;4.376;2023-04-26T03:11:22;4.60;99.90
37984;DHT22;64625;50.882;4.376;2023-04-26T03:13:47;4.50;99.90
37984;DHT22;64625;50.882;4.376;2023-04-26T03:16:13;4.50;99.90
37984;DHT22;64625;50.882;4.376;2023-04-26T03:18:39;4.50;99.90
37984;DHT22;64625;50.882;4.376;2023-04-26T03:21:05;4.50;99.90
37984;DHT22;64625;50.882;4.376;2023-04-26T03:23:31;4.50;99.90
37984;DHT22;64625;50.882;4.376;2023-04-26T03:25:56;4.50;99.90
37984;DHT22;64625;50.882;4.376;2023-04-26T03:28:23;4.50;99.90
37984;DHT22;64625;50.882;4.376;2023-04-26T03:30:49;4.50;99.90
37984;DHT22;64625;50.882;4.376;2023-04-26T03:33:15;4.50;99.90
37984;DHT22;64625;50.882;4.376;2023-04-26T03:35:42;4.50;99.90
37984;DHT22;64625;50.882;4.376;2023-04-26T03:38:08;4.50;99.90
37984;DHT22;64625;50.882;4.376;2023-04-26T03:40:34;4.50;99.90
37984;DHT22;64625;50.882;4.376;2023-04-26T03:43:00;4.50;99.90
37984;DHT22;64625;50.882;4.376;2023-04-26T03:45:26;4.50;99.90
37984;DHT22;64625;50.882;4.376;2023-04-26T03:47:52;4.50;99.90
37984;DHT22;64625;50.882;4.376;2023-04-26T03:50:18;4.50;99.90
37984;DHT22;64625;50.882;4.376;2023-04-26T03:52:44;4.50;99.90
37984;DHT22;64625;50.882;4.376;2023-04-26T03:55:10;4.60;99.90
37984;DHT22;64625;50.882;4.376;2023-04-26T03:57:36;4.50;99.90
37984;DHT22;64625;50.882;4.376;2023-04-26T04:00:03;4.50;99.90
37984;DHT22;64625;50.882;4.376;2023-04-26T04:02:38;4.50;99.90
37984;DHT22;64625;50.882;4.376;2023-04-26T04:05:04;4.50;99.90
37984;DHT22;64625;50.882;4.376;2023-04-26T04:07:30;4.50;99.90
37984;DHT22;64625;50.882;4.376;2023-04-26T04:09:58;4.50;99.90
37984;DHT22;64625;50.882;4.376;2023-04-26T04:12:24;4.50;99.90
37984;DHT22;64625;50.882;4.376;2023-04-26T04:14:50;4.50;99.90
37984;DHT22;64625;50.882;4.376;2023-04-26T04:17:17;4.50;99.90
37984;DHT22;64625;50.882;4.376;2023-04-26T04:19:43;4.50;99.90
37984;DHT22;64625;50.882;4.376;2023-04-26T04:22:10;4.50;99.90
37984;DHT22;64625;50.882;4.376;2023-04-26T04:24:36;4.50;99.90
37984;DHT22;64625;50.882;4.376;2023-04-26T04:27:02;4.50;99.90
37984;DHT22;64625;50.882;4.376;2023-04-26T04:29:28;4.50;99.90
37984;DHT22;64625;50.882;4.376;2023-04-26T04:31:55;4.50;99.90
37984;DHT22;64625;50.882;4.376;2023-04-26T04:34:21;4.50;99.90
37984;DHT22;64625;50.882;4.376;2023-04-26T04:36:48;4.50;99.90
37984;DHT22;64625;50.882;4.376;2023-04-26T04:39:15;4.50;99.90
37984;DHT22;64625;50.882;4.376;2023-04-26T04:41:42;4.60;99.90
37984;DHT22;64625;50.882;4.376;2023-04-26T04:44:14;4.60;99.90
37984;DHT22;64625;50.882;4.376;2023-04-26T04:46:41;4.60;99.90
37984;DHT22;64625;50.882;4.376;2023-04-26T04:49:07;4.60;99.90
37984;DHT22;64625;50.882;4.376;2023-04-26T04:51:37;4.70;99.90
37984;DHT22;64625;50.882;4.376;2023-04-26T04:54:29;4.70;99.90
37984;DHT22;64625;50.882;4.376;2023-04-26T04:56:55;4.70;99.90
37984;DHT22;64625;50.882;4.376;2023-04-26T04:59:22;4.70;99.90
37984;DHT22;64625;50.882;4.376;2023-04-26T05:01:49;4.80;99.90
37984;DHT22;64625;50.882;4.376;2023-04-26T05:04:15;4.80;99.90
37984;DHT22;64625;50.882;4.376;2023-04-26T05:06:41;4.90;99.90
37984;DHT22;64625;50.882;4.376;2023-04-26T05:09:07;4.90;99.90
37984;DHT22;64625;50.882;4.376;2023-04-26T05:11:34;4.90;99.90
37984;DHT22;64625;50.882;4.376;2023-04-26T05:14:00;5.00;99.90
37984;DHT22;64625;50.882;4.376;2023-04-26T05:16:26;5.00;99.90
37984;DHT22;64625;50.882;4.376;2023-04-26T05:18:52;5.00;99.90
37984;DHT22;64625;50.882;4.376;2023-04-26T05:21:18;5.10;99.90
37984;DHT22;64625;50.882;4.376;2023-04-26T05:23:44;5.10;99.90
37984;DHT22;64625;50.882;4.376;2023-04-26T05:26:14;5.10;99.90
37984;DHT22;64625;50.882;4.376;2023-04-26T05:28:41;5.20;99.90
37984;DHT22;64625;50.882;4.376;2023-04-26T05:31:08;5.20;99.90
37984;DHT22;64625;50.882;4.376;2023-04-26T05:33:34;5.30;99.90
37984;DHT22;64625;50.882;4.376;2023-04-26T05:36:00;5.30;99.90
37984;DHT22;64625;50.882;4.376;2023-04-26T05:38:27;5.30;99.90
37984;DHT22;64625;50.882;4.376;2023-04-26T05:40:53;5.40;99.90
37984;DHT22;64625;50.882;4.376;2023-04-26T05:43:19;5.40;99.90
37984;DHT22;64625;50.882;4.376;2023-04-26T05:45:55;5.50;99.90
37984;DHT22;64625;50.882;4.376;2023-04-26T05:48:22;5.50;99.90
37984;DHT22;64625;50.882;4.376;2023-04-26T05:50:50;5.60;99.90
37984;DHT22;64625;50.882;4.376;2023-04-26T05:53:17;5.60;99.90
37984;DHT22;64625;50.882;4.376;2023-04-26T05:55:46;5.70;99.90
37984;DHT22;64625;50.882;4.376;2023-04-26T05:58:12;5.70;99.90
37984;DHT22;64625;50.882;4.376;2023-04-26T06:00:41;5.80;99.90
37984;DHT22;64625;50.882;4.376;2023-04-26T06:03:07;5.90;99.90
37984;DHT22;64625;50.882;4.376;2023-04-26T06:05:34;5.90;99.90
37984;DHT22;64625;50.882;4.376;2023-04-26T06:08:02;6.00;99.90
37984;DHT22;64625;50.882;4.376;2023-04-26T06:10:28;6.10;99.90
37984;DHT22;64625;50.882;4.376;2023-04-26T06:12:54;6.20;99.90
37984;DHT22;64625;50.882;4.376;2023-04-26T06:15:20;6.30;99.90
37984;DHT22;64625;50.882;4.376;2023-04-26T06:17:46;6.40;99.90
37984;DHT22;64625;50.882;4.376;2023-04-26T06:20:12;6.50;99.90
37984;DHT22;64625;50.882;4.376;2023-04-26T06:22:38;6.60;99.90
37984;DHT22;64625;50.882;4.376;2023-04-26T06:25:05;6.60;99.90
37984;DHT22;64625;50.882;4.376;2023-04-26T06:27:34;6.70;99.90
37984;DHT22;64625;50.882;4.376;2023-04-26T06:30:00;6.80;99.90
37984;DHT22;64625;50.882;4.376;2023-04-26T06:32:26;6.80;99.90
37984;DHT22;64625;50.882;4.376;2023-04-26T06:34:52;6.90;99.90
37984;DHT22;64625;50.882;4.376;2023-04-26T06:37:18;6.90;99.90
37984;DHT22;64625;50.882;4.376;2023-04-26T06:39:43;7.00;99.90
37984;DHT22;64625;50.882;4.376;2023-04-26T06:42:09;7.10;99.90
37984;DHT22;64625;50.882;4.376;2023-04-26T06:44:36;7.20;99.90
37984;DHT22;64625;50.882;4.376;2023-04-26T06:47:02;7.30;99.90
37984;DHT22;64625;50.882;4.376;2023-04-26T06:49:28;7.30;99.90
37984;DHT22;64625;50.882;4.376;2023-04-26T06:51:55;7.40;99.90
37984;DHT22;64625;50.882;4.376;2023-04-26T06:54:20;7.50;99.90
37984;DHT22;64625;50.882;4.376;2023-04-26T06:56:47;7.60;99.90
37984;DHT22;64625;50.882;4.376;2023-04-26T06:59:13;7.60;99.90
37984;DHT22;64625;50.882;4.376;2023-04-26T07:01:39;7.70;99.90
37984;DHT22;64625;50.882;4.376;2023-04-26T07:04:05;7.80;99.90
37984;DHT22;64625;50.882;4.376;2023-04-26T07:06:34;7.90;99.90
37984;DHT22;64625;50.882;4.376;2023-04-26T07:09:00;7.90;99.90
37984;DHT22;64625;50.882;4.376;2023-04-26T07:11:27;8.00;99.90
37984;DHT22;64625;50.882;4.376;2023-04-26T07:13:53;8.10;99.90
37984;DHT22;64625;50.882;4.376;2023-04-26T07:16:20;8.20;99.90
37984;DHT22;64625;50.882;4.376;2023-04-26T07:18:46;8.30;99.90
37984;DHT22;64625;50.882;4.376;2023-04-26T07:21:15;8.30;99.90
37984;DHT22;64625;50.882;4.376;2023-04-26T07:23:41;8.40;99.90
37984;DHT22;64625;50.882;4.376;2023-04-26T07:26:10;8.50;99.90
37984;DHT22;64625;50.882;4.376;2023-04-26T07:28:36;8.60;99.90
37984;DHT22;64625;50.882;4.376;2023-04-26T07:31:02;8.60;99.90
37984;DHT22;64625;50.882;4.376;2023-04-26T07:33:28;8.70;99.90
37984;DHT22;64625;50.882;4.376;2023-04-26T07:35:55;8.80;99.90
37984;DHT22;64625;50.882;4.376;2023-04-26T07:38:22;8.90;99.90
37984;DHT22;64625;50.882;4.376;2023-04-26T07:40:49;8.90;99.90
37984;DHT22;64625;50.882;4.376;2023-04-26T07:43:17;9.00;99.90
37984;DHT22;64625;50.882;4.376;2023-04-26T07:45:43;9.10;99.90
37984;DHT22;64625;50.882;4.376;2023-04-26T07:48:09;9.10;99.90
37984;DHT22;64625;50.882;4.376;2023-04-26T07:50:35;9.20;99.90
37984;DHT22;64625;50.882;4.376;2023-04-26T07:53:01;9.30;99.90
37984;DHT22;64625;50.882;4.376;2023-04-26T07:55:27;9.40;99.90
37984;DHT22;64625;50.882;4.376;2023-04-26T07:57:53;9.40;99.90
37984;DHT22;64625;50.882;4.376;2023-04-26T08:00:20;9.50;99.90
37984;DHT22;64625;50.882;4.376;2023-04-26T08:02:48;9.60;99.90
37984;DHT22;64625;50.882;4.376;2023-04-26T08:05:14;9.70;99.90
37984;DHT22;64625;50.882;4.376;2023-04-26T08:07:41;9.70;99.90
37984;DHT22;64625;50.882;4.376;2023-04-26T08:10:08;9.80;99.90
37984;DHT22;64625;50.882;4.376;2023-04-26T08:12:36;9.90;99.90
37984;DHT22;64625;50.882;4.376;2023-04-26T08:15:03;10.00;99.90
37984;DHT22;64625;50.882;4.376;2023-04-26T08:17:32;10.10;99.90
37984;DHT22;64625;50.882;4.376;2023-04-26T08:19:59;10.20;99.90
37984;DHT22;64625;50.882;4.376;2023-04-26T08:22:25;10.20;99.90
37984;DHT22;64625;50.882;4.376;2023-04-26T08:24:53;10.30;99.90
37984;DHT22;64625;50.882;4.376;2023-04-26T08:27:20;10.40;99.90
37984;DHT22;64625;50.882;4.376;2023-04-26T08:29:46;10.50;99.90
37984;DHT22;64625;50.882;4.376;2023-04-26T08:32:12;10.60;99.90
37984;DHT22;64625;50.882;4.376;2023-04-26T08:34:38;10.60;99.90
37984;DHT22;64625;50.882;4.376;2023-04-26T08:37:07;10.70;99.90
37984;DHT22;64625;50.882;4.376;2023-04-26T08:39:33;10.70;99.90
37984;DHT22;64625;50.882;4.376;2023-04-26T08:42:05;10.70;99.90
37984;DHT22;64625;50.882;4.376;2023-04-26T08:44:42;10.80;99.90
37984;DHT22;64625;50.882;4.376;2023-04-26T08:49:57;10.90;99.90
37984;DHT22;64625;50.882;4.376;2023-04-26T08:52:29;11.00;99.90
37984;DHT22;64625;50.882;4.376;2023-04-26T08:54:57;11.10;99.90
37984;DHT22;64625;50.882;4.376;2023-04-26T08:57:24;11.20;99.90
37984;DHT22;64625;50.882;4.376;2023-04-26T08:59:50;11.30;99.90
37984;DHT22;64625;50.882;4.376;2023-04-26T09:02:19;11.30;99.90
37984;DHT22;64625;50.882;4.376;2023-04-26T09:04:46;11.40;99.90
37984;DHT22;64625;50.882;4.376;2023-04-26T09:07:26;11.40;99.90
37984;DHT22;64625;50.882;4.376;2023-04-26T09:09:56;11.50;99.90
37984;DHT22;64625;50.882;4.376;2023-04-26T09:12:23;11.60;99.90
37984;DHT22;64625;50.882;4.376;2023-04-26T09:14:49;11.70;99.90
37984;DHT22;64625;50.882;4.376;2023-04-26T09:17:28;11.80;99.90
37984;DHT22;64625;50.882;4.376;2023-04-26T09:22:41;11.90;99.90
37984;DHT22;64625;50.882;4.376;2023-04-26T09:25:07;11.90;99.90
37984;DHT22;64625;50.882;4.376;2023-04-26T09:27:38;12.00;99.90
37984;DHT22;64625;50.882;4.376;2023-04-26T09:32:56;12.10;99.90
37984;DHT22;64625;50.882;4.376;2023-04-26T09:35:41;12.20;99.90
37984;DHT22;64625;50.882;4.376;2023-04-26T09:38:17;12.30;99.90
37984;DHT22;64625;50.882;4.376;2023-04-26T09:40:45;12.40;99.90
37984;DHT22;64625;50.882;4.376;2023-04-26T09:43:15;12.40;99.90
37984;DHT22;64625;50.882;4.376;2023-04-26T09:45:48;12.50;99.90
37984;DHT22;64625;50.882;4.376;2023-04-26T09:48:28;12.50;99.90
37984;DHT22;64625;50.882;4.376;2023-04-26T09:53:37;12.60;99.90
37984;DHT22;64625;50.882;4.376;2023-04-26T09:56:40;12.70;99.90
37984;DHT22;64625;50.882;4.376;2023-04-26T09:59:00;12.70;99.20
37984;DHT22;64625;50.882;4.376;2023-04-26T10:01:29;12.80;99.10
37984;DHT22;64625;50.882;4.376;2023-04-26T10:03:56;12.90;99.00
37984;DHT22;64625;50.882;4.376;2023-04-26T10:06:22;13.00;98.30
37984;DHT22;64625;50.882;4.376;2023-04-26T10:08:50;13.10;98.20
37984;DHT22;64625;50.882;4.376;2023-04-26T10:11:17;13.10;97.70
37984;DHT22;64625;50.882;4.376;2023-04-26T10:13:43;13.20;97.20
37984;DHT22;64625;50.882;4.376;2023-04-26T10:16:10;13.30;96.40
37984;DHT22;64625;50.882;4.376;2023-04-26T10:18:36;13.40;96.10
37984;DHT22;64625;50.882;4.376;2023-04-26T10:21:32;13.50;95.20
37984;DHT22;64625;50.882;4.376;2023-04-26T10:24:00;13.50;94.20
37984;DHT22;64625;50.882;4.376;2023-04-26T10:26:50;13.60;94.20
37984;DHT22;64625;50.882;4.376;2023-04-26T10:29:20;13.70;93.20
37984;DHT22;64625;50.882;4.376;2023-04-26T10:32:13;13.70;93.40
37984;DHT22;64625;50.882;4.376;2023-04-26T10:34:42;13.80;92.20
37984;DHT22;64625;50.882;4.376;2023-04-26T10:37:17;13.80;92.80
37984;DHT22;64625;50.882;4.376;2023-04-26T10:39:44;13.80;91.30
37984;DHT22;64625;50.882;4.376;2023-04-26T10:42:27;13.90;91.20
37984;DHT22;64625;50.882;4.376;2023-04-26T10:44:58;13.90;90.90
37984;DHT22;64625;50.882;4.376;2023-04-26T10:47:30;13.90;90.70
37984;DHT22;64625;50.882;4.376;2023-04-26T10:50:08;13.90;90.40
37984;DHT22;64625;50.882;4.376;2023-04-26T10:52:36;13.90;88.40
37984;DHT22;64625;50.882;4.376;2023-04-26T10:55:03;13.80;88.00
37984;DHT22;64625;50.882;4.376;2023-04-26T10:57:51;13.90;86.40
37984;DHT22;64625;50.882;4.376;2023-04-26T11:00:18;13.80;86.30
37984;DHT22;64625;50.882;4.376;2023-04-26T11:02:46;13.90;86.30
37984;DHT22;64625;50.882;4.376;2023-04-26T11:05:51;13.90;84.20
37984;DHT22;64625;50.882;4.376;2023-04-26T11:08:28;13.90;82.90
37984;DHT22;64625;50.882;4.376;2023-04-26T11:11:09;14.00;84.60
37984;DHT22;64625;50.882;4.376;2023-04-26T11:13:42;14.00;84.60
37984;DHT22;64625;50.882;4.376;2023-04-26T11:16:10;14.10;83.60
37984;DHT22;64625;50.882;4.376;2023-04-26T11:18:38;14.20;83.50
37984;DHT22;64625;50.882;4.376;2023-04-26T11:21:05;14.20;84.20
37984;DHT22;64625;50.882;4.376;2023-04-26T11:23:32;14.20;83.30
37984;DHT22;64625;50.882;4.376;2023-04-26T11:25:59;14.30;82.70
37984;DHT22;64625;50.882;4.376;2023-04-26T11:28:29;14.40;82.50
37984;DHT22;64625;50.882;4.376;2023-04-26T11:30:56;14.40;81.90
37984;DHT22;64625;50.882;4.376;2023-04-26T11:33:22;14.50;81.70
37984;DHT22;64625;50.882;4.376;2023-04-26T11:35:49;14.50;82.00
37984;DHT22;64625;50.882;4.376;2023-04-26T11:38:15;14.70;80.90
37984;DHT22;64625;50.882;4.376;2023-04-26T11:40:42;14.70;80.30
37984;DHT22;64625;50.882;4.376;2023-04-26T11:43:09;14.80;80.10
37984;DHT22;64625;50.882;4.376;2023-04-26T11:45:37;14.80;78.80
37984;DHT22;64625;50.882;4.376;2023-04-26T11:48:05;14.80;78.80
37984;DHT22;64625;50.882;4.376;2023-04-26T11:50:36;14.90;78.90
37984;DHT22;64625;50.882;4.376;2023-04-26T11:53:04;14.90;79.20
37984;DHT22;64625;50.882;4.376;2023-04-26T11:55:31;14.90;78.90
37984;DHT22;64625;50.882;4.376;2023-04-26T11:58:08;15.00;78.70
37984;DHT22;64625;50.882;4.376;2023-04-26T12:00:34;15.00;77.90
37984;DHT22;64625;50.882;4.376;2023-04-26T12:03:09;15.00;77.00
37984;DHT22;64625;50.882;4.376;2023-04-26T12:05:36;15.00;74.80
37984;DHT22;64625;50.882;4.376;2023-04-26T12:08:03;14.90;74.10
37984;DHT22;64625;50.882;4.376;2023-04-26T12:10:36;14.90;73.00
37984;DHT22;64625;50.882;4.376;2023-04-26T12:13:02;14.80;72.90
37984;DHT22;64625;50.882;4.376;2023-04-26T12:15:30;14.80;72.70
37984;DHT22;64625;50.882;4.376;2023-04-26T12:18:08;14.70;71.80
37984;DHT22;64625;50.882;4.376;2023-04-26T12:20:39;14.70;71.70
37984;DHT22;64625;50.882;4.376;2023-04-26T12:23:13;14.70;72.30
37984;DHT22;64625;50.882;4.376;2023-04-26T12:25:55;14.70;72.70
37984;DHT22;64625;50.882;4.376;2023-04-26T12:28:22;14.80;70.00
37984;DHT22;64625;50.882;4.376;2023-04-26T12:30:49;14.80;72.00
37984;DHT22;64625;50.882;4.376;2023-04-26T12:33:15;14.80;72.10
37984;DHT22;64625;50.882;4.376;2023-04-26T12:35:45;14.90;72.40
37984;DHT22;64625;50.882;4.376;2023-04-26T12:38:11;15.00;71.30
37984;DHT22;64625;50.882;4.376;2023-04-26T12:40:37;15.00;71.60
37984;DHT22;64625;50.882;4.376;2023-04-26T12:43:03;15.10;71.30
37984;DHT22;64625;50.882;4.376;2023-04-26T12:45:29;15.20;69.90
37984;DHT22;64625;50.882;4.376;2023-04-26T12:47:55;15.20;69.80
37984;DHT22;64625;50.882;4.376;2023-04-26T12:50:21;15.30;70.40
37984;DHT22;64625;50.882;4.376;2023-04-26T12:52:47;15.30;70.60
37984;DHT22;64625;50.882;4.376;2023-04-26T12:55:14;15.40;70.40
37984;DHT22;64625;50.882;4.376;2023-04-26T12:57:42;15.40;70.40
37984;DHT22;64625;50.882;4.376;2023-04-26T13:00:13;15.50;69.90
37984;DHT22;64625;50.882;4.376;2023-04-26T13:02:40;15.50;67.30
37984;DHT22;64625;50.882;4.376;2023-04-26T13:05:07;15.50;67.50
37984;DHT22;64625;50.882;4.376;2023-04-26T13:07:35;15.40;67.70
37984;DHT22;64625;50.882;4.376;2023-04-26T13:10:02;15.40;68.30
37984;DHT22;64625;50.882;4.376;2023-04-26T13:12:29;15.40;68.10
37984;DHT22;64625;50.882;4.376;2023-04-26T13:14:55;15.40;66.70
37984;DHT22;64625;50.882;4.376;2023-04-26T13:17:23;15.40;66.00
37984;DHT22;64625;50.882;4.376;2023-04-26T13:19:50;15.40;65.30
37984;DHT22;64625;50.882;4.376;2023-04-26T13:22:18;15.40;65.90
37984;DHT22;64625;50.882;4.376;2023-04-26T13:24:45;15.50;66.10
37984;DHT22;64625;50.882;4.376;2023-04-26T13:27:12;15.50;65.90
37984;DHT22;64625;50.882;4.376;2023-04-26T13:29:38;15.60;65.10
37984;DHT22;64625;50.882;4.376;2023-04-26T13:32:04;15.60;65.40
37984;DHT22;64625;50.882;4.376;2023-04-26T13:34:31;15.70;66.50
37984;DHT22;64625;50.882;4.376;2023-04-26T13:36:57;15.80;66.70
37984;DHT22;64625;50.882;4.376;2023-04-26T13:39:24;15.90;65.20
37984;DHT22;64625;50.882;4.376;2023-04-26T13:41:51;16.00;65.20
37984;DHT22;64625;50.882;4.376;2023-04-26T13:44:17;16.10;64.50
37984;DHT22;64625;50.882;4.376;2023-04-26T13:46:47;16.20;64.20
37984;DHT22;64625;50.882;4.376;2023-04-26T13:49:13;16.30;64.50
37984;DHT22;64625;50.882;4.376;2023-04-26T13:51:39;16.40;64.60
37984;DHT22;64625;50.882;4.376;2023-04-26T13:54:06;16.60;64.20
37984;DHT22;64625;50.882;4.376;2023-04-26T13:56:32;16.70;64.80
37984;DHT22;64625;50.882;4.376;2023-04-26T13:58:59;16.90;65.00
37984;DHT22;64625;50.882;4.376;2023-04-26T14:01:33;17.10;64.90
37984;DHT22;64625;50.882;4.376;2023-04-26T14:04:00;17.20;63.50
37984;DHT22;64625;50.882;4.376;2023-04-26T14:06:26;17.30;63.20
37984;DHT22;64625;50.882;4.376;2023-04-26T14:08:53;17.30;62.30
37984;DHT22;64625;50.882;4.376;2023-04-26T14:11:19;17.30;63.10
37984;DHT22;64625;50.882;4.376;2023-04-26T14:13:45;17.40;63.80
37984;DHT22;64625;50.882;4.376;2023-04-26T14:16:11;17.60;63.90
37984;DHT22;64625;50.882;4.376;2023-04-26T14:18:37;17.70;63.90
37984;DHT22;64625;50.882;4.376;2023-04-26T14:21:10;17.80;64.00
37984;DHT22;64625;50.882;4.376;2023-04-26T14:23:37;18.00;63.90
37984;DHT22;64625;50.882;4.376;2023-04-26T14:26:02;18.10;63.70
37984;DHT22;64625;50.882;4.376;2023-04-26T14:28:28;18.20;61.70
37984;DHT22;64625;50.882;4.376;2023-04-26T14:30:54;18.40;62.50
37984;DHT22;64625;50.882;4.376;2023-04-26T14:33:20;18.50;62.10
37984;DHT22;64625;50.882;4.376;2023-04-26T14:35:46;18.60;61.50
37984;DHT22;64625;50.882;4.376;2023-04-26T14:38:12;18.70;61.00
37984;DHT22;64625;50.882;4.376;2023-04-26T14:40:38;18.70;61.40
37984;DHT22;64625;50.882;4.376;2023-04-26T14:43:04;18.80;60.10
37984;DHT22;64625;50.882;4.376;2023-04-26T14:45:29;18.80;59.80
37984;DHT22;64625;50.882;4.376;2023-04-26T14:47:58;18.90;59.90
37984;DHT22;64625;50.882;4.376;2023-04-26T14:50:25;19.10;60.30
37984;DHT22;64625;50.882;4.376;2023-04-26T14:52:51;19.20;59.40
37984;DHT22;64625;50.882;4.376;2023-04-26T14:55:17;19.20;59.00
37984;DHT22;64625;50.882;4.376;2023-04-26T14:57:43;19.20;59.20
37984;DHT22;64625;50.882;4.376;2023-04-26T15:00:10;19.20;58.80
37984;DHT22;64625;50.882;4.376;2023-04-26T15:02:41;19.10;56.90
37984;DHT22;64625;50.882;4.376;2023-04-26T15:05:07;18.90;57.00
37984;DHT22;64625;50.882;4.376;2023-04-26T15:07:34;18.80;56.80
37984;DHT22;64625;50.882;4.376;2023-04-26T15:10:01;18.70;57.60
37984;DHT22;64625;50.882;4.376;2023-04-26T15:12:27;18.70;56.20
37984;DHT22;64625;50.882;4.376;2023-04-26T15:14:55;18.60;56.60
37984;DHT22;64625;50.882;4.376;2023-04-26T15:17:21;18.60;57.40
37984;DHT22;64625;50.882;4.376;2023-04-26T15:19:47;18.70;58.10
37984;DHT22;64625;50.882;4.376;2023-04-26T15:22:13;18.80;58.70
37984;DHT22;64625;50.882;4.376;2023-04-26T15:24:39;18.90;57.70
37984;DHT22;64625;50.882;4.376;2023-04-26T15:27:05;18.90;57.90
37984;DHT22;64625;50.882;4.376;2023-04-26T15:29:31;18.90;58.00
37984;DHT22;64625;50.882;4.376;2023-04-26T15:31:58;19.10;58.50
37984;DHT22;64625;50.882;4.376;2023-04-26T15:34:24;19.20;58.30
37984;DHT22;64625;50.882;4.376;2023-04-26T15:36:51;19.30;58.50
37984;DHT22;64625;50.882;4.376;2023-04-26T15:39:18;19.40;57.70
37984;DHT22;64625;50.882;4.376;2023-04-26T15:41:44;19.50;57.30
37984;DHT22;64625;50.882;4.376;2023-04-26T15:44:11;19.50;56.00
37984;DHT22;64625;50.882;4.376;2023-04-26T15:46:37;19.50;55.90
37984;DHT22;64625;50.882;4.376;2023-04-26T15:49:04;19.30;55.20
37984;DHT22;64625;50.882;4.376;2023-04-26T15:51:29;19.20;55.00
37984;DHT22;64625;50.882;4.376;2023-04-26T15:53:55;19.10;55.30